createdAt,value
2018-04-01T00:01:01.511Z,13.07
2018-04-01T00:03:28.664Z,13.09
2018-04-01T00:05:55.696Z,13.07
2018-04-01T00:08:22.722Z,13.04
2018-04-01T00:10:49.865Z,13.02
2018-04-01T00:13:16.910Z,13.00
2018-04-01T00:15:44.015Z,13.01
2018-04-01T00:18:11.104Z,12.99
2018-04-01T00:20:38.148Z,13.00
2018-04-01T00:23:05.181Z,12.95
2018-04-01T00:25:32.288Z,12.89
2018-04-01T00:27:59.323Z,12.89
2018-04-01T00:30:26.362Z,12.83
2018-04-01T00:32:53.542Z,12.84
2018-04-01T00:35:20.644Z,12.83
2018-04-01T00:37:47.806Z,12.81
2018-04-01T00:40:14.896Z,12.80
2018-04-01T00:42:41.935Z,12.86
2018-04-01T00:45:08.987Z,12.83
2018-04-01T00:47:36.161Z,12.84
2018-04-01T00:50:03.198Z,12.76
2018-04-01T00:52:30.234Z,12.85
2018-04-01T00:54:57.378Z,12.88
2018-04-01T00:57:24.392Z,12.91
2018-04-01T00:59:51.451Z,12.93
2018-04-01T01:02:18.586Z,12.95
2018-04-01T01:04:45.688Z,13.02
2018-04-01T01:07:12.786Z,13.06
2018-04-01T01:09:40.050Z,13.09
2018-04-01T01:12:07.176Z,13.14
2018-04-01T01:14:34.231Z,13.17
2018-04-01T01:17:02.256Z,13.15
2018-04-01T01:19:29.293Z,13.08
2018-04-01T01:21:56.336Z,13.08
2018-04-01T01:24:23.515Z,13.03
2018-04-01T01:26:50.549Z,13.05
2018-04-01T01:29:17.660Z,13.03
2018-04-01T01:31:44.751Z,13.05
2018-04-01T01:34:11.846Z,12.97
2018-04-01T01:36:38.896Z,12.97
2018-04-01T01:39:06.088Z,12.97
2018-04-01T01:41:33.178Z,12.94
2018-04-01T01:44:00.283Z,12.87
2018-04-01T01:46:27.441Z,12.75
2018-04-01T01:48:54.759Z,12.75
2018-04-01T01:51:21.858Z,12.65
2018-04-01T01:53:50.090Z,12.59
2018-04-01T01:56:17.236Z,12.56
2018-04-01T01:58:44.286Z,12.52
2018-04-01T02:01:11.395Z,12.52
2018-04-01T02:03:38.442Z,12.52
2018-04-01T02:06:05.482Z,12.52
2018-04-01T02:08:32.613Z,12.50
2018-04-01T02:10:59.719Z,12.48
2018-04-01T02:13:26.771Z,12.48
2018-04-01T02:15:53.953Z,12.47
2018-04-01T02:18:20.981Z,12.43
2018-04-01T02:20:48.100Z,12.40
2018-04-01T02:23:15.341Z,12.44
2018-04-01T02:25:42.443Z,12.44
2018-04-01T02:28:09.486Z,12.50
2018-04-01T02:30:36.697Z,12.59
2018-04-01T02:33:03.736Z,12.64
2018-04-01T02:35:30.873Z,12.69
2018-04-01T02:37:58.041Z,12.70
2018-04-01T02:40:25.083Z,12.75
2018-04-01T02:42:52.199Z,12.76
2018-04-01T02:45:19.360Z,12.78
2018-04-01T02:47:46.394Z,12.77
2018-04-01T02:50:13.510Z,12.76
2018-04-01T02:52:40.733Z,12.78
2018-04-01T02:55:07.853Z,12.85
2018-04-01T02:57:34.895Z,12.96
2018-04-01T03:00:01.980Z,13.04
2018-04-01T03:02:29.044Z,13.17
2018-04-01T03:04:56.086Z,13.16
2018-04-01T03:07:23.269Z,13.23
2018-04-01T03:09:50.324Z,13.30
2018-04-01T03:12:17.384Z,13.35
2018-04-01T03:14:44.627Z,13.41
2018-04-01T03:17:11.670Z,13.42
2018-04-01T03:19:38.701Z,13.42
2018-04-01T03:22:05.802Z,13.46
2018-04-01T03:24:32.842Z,13.48
2018-04-01T03:27:00.005Z,13.55
2018-04-01T03:29:27.189Z,13.61
2018-04-01T03:31:54.304Z,13.61
2018-04-01T03:34:21.344Z,13.64
2018-04-01T03:36:48.592Z,13.62
2018-04-01T03:39:15.693Z,13.61
2018-04-01T03:41:42.802Z,13.64
2018-04-01T03:44:09.997Z,13.76
2018-04-01T03:46:37.029Z,13.75
2018-04-01T03:49:04.081Z,13.78
2018-04-01T03:51:31.242Z,13.69
2018-04-01T03:53:58.344Z,13.73
2018-04-01T03:56:25.396Z,13.75
2018-04-01T03:58:52.498Z,13.74
2018-04-01T04:01:19.602Z,13.72
2018-04-01T04:03:46.737Z,13.64
2018-04-01T04:06:14.020Z,13.68
2018-04-01T04:08:41.091Z,13.69
2018-04-01T04:11:08.161Z,13.66
2018-04-01T04:13:35.346Z,13.71
2018-04-01T04:16:02.384Z,13.69
2018-04-01T04:18:29.419Z,13.61
2018-04-01T04:20:56.594Z,13.58
2018-04-01T04:23:23.682Z,13.52
2018-04-01T04:25:50.730Z,13.53
2018-04-01T04:28:17.838Z,13.48
2018-04-01T04:30:44.879Z,13.46
2018-04-01T04:33:11.974Z,13.46
2018-04-01T04:35:39.119Z,13.46
2018-04-01T04:38:06.160Z,13.51
2018-04-01T04:40:33.208Z,13.57
2018-04-01T04:43:00.378Z,13.56
2018-04-01T04:45:27.407Z,13.51
2018-04-01T04:47:54.444Z,13.59
2018-04-01T04:50:21.533Z,13.74
2018-04-01T04:52:49.006Z,13.79
2018-04-01T04:55:16.081Z,13.84
2018-04-01T04:57:43.246Z,13.93
2018-04-01T05:00:10.278Z,14.04
2018-04-01T05:02:37.310Z,14.16
2018-04-01T05:05:04.402Z,14.29
2018-04-01T05:07:31.438Z,14.43
2018-04-01T05:09:58.482Z,14.57
2018-04-01T05:12:25.642Z,14.70
2018-04-01T05:14:52.685Z,14.80
2018-04-01T05:17:19.713Z,14.91
2018-04-01T05:19:46.990Z,15.00
2018-04-01T05:22:14.139Z,15.11
2018-04-01T05:24:41.176Z,15.28
2018-04-01T05:27:08.350Z,15.88
2018-04-01T05:29:35.454Z,16.20
2018-04-01T05:32:02.559Z,16.08
2018-04-01T05:34:29.650Z,16.20
2018-04-01T05:36:57.182Z,16.13
2018-04-01T05:39:24.218Z,16.12
2018-04-01T05:41:51.304Z,15.79
2018-04-01T05:44:18.443Z,15.62
2018-04-01T05:46:45.489Z,15.35
2018-04-01T05:49:13.062Z,15.26
2018-04-01T05:51:40.162Z,15.23
2018-04-01T05:54:07.279Z,15.73
2018-04-01T05:56:34.373Z,16.41
2018-04-01T05:59:01.479Z,16.82
2018-04-01T06:01:28.571Z,17.39
2018-04-01T06:03:55.665Z,17.71
2018-04-01T06:06:22.734Z,18.28
2018-04-01T06:08:49.890Z,18.49
2018-04-01T06:11:17.123Z,18.60
2018-04-01T06:13:44.222Z,18.22
2018-04-01T06:16:11.261Z,17.55
2018-04-01T06:18:39.210Z,17.30
2018-04-01T06:21:06.581Z,17.61
2018-04-01T06:23:33.673Z,17.83
2018-04-01T06:26:00.839Z,18.23
2018-04-01T06:28:28.775Z,18.45
2018-04-01T06:30:55.837Z,18.67
2018-04-01T06:33:23.016Z,18.94
2018-04-01T06:35:50.038Z,19.24
2018-04-01T06:38:17.138Z,19.36
2018-04-01T06:40:44.291Z,19.02
2018-04-01T06:43:11.331Z,18.35
2018-04-01T06:45:38.373Z,17.82
2018-04-01T06:48:05.463Z,17.60
2018-04-01T06:50:32.573Z,18.49
2018-04-01T06:52:59.610Z,19.11
2018-04-01T06:55:26.806Z,19.12
2018-04-01T06:57:53.931Z,18.48
2018-04-01T07:00:21.018Z,18.06
2018-04-01T07:02:48.119Z,17.82
2018-04-01T07:05:15.145Z,17.82
2018-04-01T07:07:42.199Z,17.86
2018-04-01T07:10:09.398Z,17.68
2018-04-01T07:12:36.489Z,17.38
2018-04-01T07:15:03.526Z,17.55
2018-04-01T07:17:30.705Z,17.96
2018-04-01T07:19:57.741Z,18.06
2018-04-01T07:22:24.775Z,18.30
2018-04-01T07:24:51.884Z,18.60
2018-04-01T07:27:18.987Z,18.56
2018-04-01T07:29:46.041Z,18.06
2018-04-01T07:32:13.138Z,18.55
2018-04-01T07:34:40.226Z,18.56
2018-04-01T07:37:08.043Z,18.60
2018-04-01T07:39:35.135Z,18.97
2018-04-01T07:42:02.167Z,19.35
2018-04-01T07:44:29.282Z,19.49
2018-04-01T07:46:56.453Z,19.46
2018-04-01T07:49:23.553Z,19.25
2018-04-01T07:51:50.684Z,19.38
2018-04-01T07:54:17.768Z,19.17
2018-04-01T07:56:45.310Z,19.40
2018-04-01T07:59:12.367Z,19.57
2018-04-01T08:01:39.542Z,19.58
2018-04-01T08:04:06.574Z,19.40
2018-04-01T08:06:33.640Z,19.32
2018-04-01T08:09:01.717Z,19.55
2018-04-01T08:11:28.752Z,19.60
2018-04-01T08:13:55.848Z,19.52
2018-04-01T08:16:22.985Z,19.55
2018-04-01T08:18:50.027Z,20.26
2018-04-01T08:21:17.066Z,20.66
2018-04-01T08:23:44.254Z,20.83
2018-04-01T08:26:11.302Z,20.64
2018-04-01T08:28:38.418Z,20.35
2018-04-01T08:31:05.686Z,20.49
2018-04-01T08:33:32.723Z,21.00
2018-04-01T08:36:00.377Z,21.01
2018-04-01T08:38:27.477Z,20.78
2018-04-01T08:40:54.604Z,20.35
2018-04-01T08:43:21.699Z,20.05
2018-04-01T08:45:48.923Z,19.63
2018-04-01T08:48:15.967Z,19.55
2018-04-01T08:50:43.006Z,19.79
2018-04-01T08:53:10.228Z,20.09
2018-04-01T08:55:37.318Z,20.26
2018-04-01T08:58:04.580Z,20.65
2018-04-01T09:00:31.670Z,20.46
2018-04-01T09:02:58.722Z,20.10
2018-04-01T09:05:25.764Z,20.12
2018-04-01T09:07:52.958Z,19.95
2018-04-01T09:10:19.981Z,20.07
2018-04-01T09:12:47.012Z,20.04
2018-04-01T09:15:14.101Z,20.16
2018-04-01T09:17:41.134Z,20.01
2018-04-01T09:20:08.241Z,20.03
2018-04-01T09:22:35.327Z,20.26
2018-04-01T09:25:02.368Z,20.54
2018-04-01T09:27:29.466Z,20.90
2018-04-01T09:29:56.640Z,20.79
2018-04-01T09:32:23.689Z,21.01
2018-04-01T09:34:50.760Z,20.82
2018-04-01T09:37:18.007Z,20.64
2018-04-01T09:39:45.048Z,20.51
2018-04-01T09:42:12.078Z,20.30
2018-04-01T09:44:39.149Z,20.07
2018-04-01T09:47:06.191Z,19.70
2018-04-01T09:49:33.290Z,19.33
2018-04-01T09:52:00.366Z,19.05
2018-04-01T09:54:27.407Z,19.05
2018-04-01T09:56:55.415Z,19.18
2018-04-01T09:59:23.495Z,19.48
2018-04-01T10:01:51.114Z,19.94
2018-04-01T10:04:18.762Z,20.52
2018-04-01T10:06:46.390Z,20.90
2018-04-01T10:09:13.962Z,21.17
2018-04-01T10:11:41.597Z,20.95
2018-04-01T10:14:09.318Z,21.11
2018-04-01T10:16:36.893Z,21.26
2018-04-01T10:19:04.498Z,21.08
2018-04-01T10:21:32.866Z,20.98
2018-04-01T10:24:00.437Z,20.75
2018-04-01T10:26:28.010Z,20.37
2018-04-01T10:28:55.715Z,20.23
2018-04-01T10:31:23.423Z,19.95
2018-04-01T10:33:51.011Z,19.80
2018-04-01T10:36:18.786Z,19.56
2018-04-01T10:38:46.420Z,19.42
2018-04-01T10:41:14.002Z,19.37
2018-04-01T10:43:43.497Z,19.38
2018-04-01T10:46:11.135Z,19.43
2018-04-01T10:48:38.710Z,19.49
2018-04-01T10:51:06.479Z,19.65
2018-04-01T10:53:34.150Z,19.86
2018-04-01T10:56:01.258Z,19.91
2018-04-01T10:58:28.407Z,19.83
2018-04-01T11:00:55.582Z,19.74
2018-04-01T11:03:22.719Z,19.79
2018-04-01T11:05:49.795Z,19.81
2018-04-01T11:08:16.889Z,20.03
2018-04-01T11:10:43.921Z,20.19
2018-04-01T11:13:11.281Z,20.62
2018-04-01T11:15:38.226Z,21.04
2018-04-01T11:18:05.259Z,21.46
2018-04-01T11:20:32.415Z,21.76
2018-04-01T11:22:59.515Z,21.72
2018-04-01T11:25:26.623Z,21.73
2018-04-01T11:27:53.705Z,21.69
2018-04-01T11:30:20.795Z,21.75
2018-04-01T11:32:47.826Z,21.96
2018-04-01T11:35:14.994Z,21.86
2018-04-01T11:37:42.091Z,21.40
2018-04-01T11:40:09.122Z,21.32
2018-04-01T11:42:36.350Z,21.39
2018-04-01T11:45:03.446Z,21.37
2018-04-01T11:47:30.548Z,21.22
2018-04-01T11:49:57.646Z,21.65
2018-04-01T11:52:25.376Z,21.69
2018-04-01T11:54:52.414Z,21.96
2018-04-01T11:57:19.509Z,22.31
2018-04-01T11:59:46.546Z,22.19
2018-04-01T12:02:13.736Z,22.46
2018-04-01T12:04:40.886Z,22.51
2018-04-01T12:07:08.764Z,22.75
2018-04-01T12:09:35.798Z,23.00
2018-04-01T12:12:02.930Z,23.33
2018-04-01T12:14:29.976Z,23.57
2018-04-01T12:16:57.074Z,23.48
2018-04-01T12:19:24.477Z,23.28
2018-04-01T12:21:51.579Z,23.00
2018-04-01T12:24:18.617Z,23.16
2018-04-01T12:26:45.701Z,23.48
2018-04-01T12:29:13.228Z,24.35
2018-04-01T12:31:40.335Z,25.34
2018-04-01T12:34:07.514Z,25.14
2018-04-01T12:36:34.552Z,25.50
2018-04-01T12:39:01.586Z,25.24
2018-04-01T12:41:29.406Z,25.15
2018-04-01T12:43:56.436Z,25.04
2018-04-01T12:46:23.489Z,24.46
2018-04-01T12:48:50.931Z,23.77
2018-04-01T12:51:18.052Z,23.43
2018-04-01T12:53:45.098Z,22.77
2018-04-01T12:56:12.233Z,21.71
2018-04-01T12:58:39.266Z,21.14
2018-04-01T13:01:06.367Z,20.82
2018-04-01T13:03:33.613Z,20.45
2018-04-01T13:06:00.635Z,20.25
2018-04-01T13:08:27.704Z,19.97
2018-04-01T13:10:54.841Z,19.68
2018-04-01T13:13:22.611Z,19.49
2018-04-01T13:15:49.678Z,19.39
2018-04-01T13:18:16.760Z,19.48
2018-04-01T13:20:43.866Z,19.71
2018-04-01T13:23:10.898Z,19.81
2018-04-01T13:25:39.421Z,19.76
2018-04-01T13:28:06.453Z,19.53
2018-04-01T13:30:33.550Z,19.16
2018-04-01T13:33:00.646Z,18.98
2018-04-01T13:35:27.685Z,18.86
2018-04-01T13:37:54.792Z,18.75
2018-04-01T13:40:21.893Z,18.57
2018-04-01T13:42:48.924Z,18.43
2018-04-01T13:45:15.950Z,18.32
2018-04-01T13:47:43.100Z,18.32
2018-04-01T13:50:10.199Z,18.39
2018-04-01T13:52:37.270Z,18.37
2018-04-01T13:55:04.598Z,18.47
2018-04-01T13:57:31.671Z,18.62
2018-04-01T13:59:58.770Z,18.71
2018-04-01T14:02:25.947Z,18.67
2018-04-01T14:04:53.046Z,18.62
2018-04-01T14:07:20.091Z,18.59
2018-04-01T14:09:47.281Z,18.64
2018-04-01T14:12:14.385Z,18.62
2018-04-01T14:14:41.483Z,18.59
2018-04-01T14:17:08.562Z,18.60
2018-04-01T14:19:35.596Z,18.67
2018-04-01T14:22:02.671Z,18.70
2018-04-01T14:24:29.803Z,18.68
2018-04-01T14:26:56.907Z,18.54
2018-04-01T14:29:23.977Z,18.46
2018-04-01T14:31:52.185Z,18.38
2018-04-01T14:34:19.213Z,18.34
2018-04-01T14:36:46.245Z,18.25
2018-04-01T14:39:13.550Z,18.14
2018-04-01T14:41:40.591Z,18.13
2018-04-01T14:44:07.631Z,18.08
2018-04-01T14:46:34.790Z,18.10
2018-04-01T14:49:01.811Z,18.07
2018-04-01T14:51:28.855Z,17.99
2018-04-01T14:53:56.007Z,17.82
2018-04-01T14:56:23.097Z,16.94
2018-04-01T14:58:50.201Z,16.11
2018-04-01T15:01:17.343Z,15.74
2018-04-01T15:03:44.372Z,15.69
2018-04-01T15:06:11.554Z,15.65
2018-04-01T15:08:38.742Z,15.65
2018-04-01T15:11:05.775Z,15.66
2018-04-01T15:13:32.837Z,15.76
2018-04-01T15:15:59.978Z,15.77
2018-04-01T15:18:27.019Z,15.80
2018-04-01T15:20:54.059Z,15.76
2018-04-01T15:23:21.138Z,15.61
2018-04-01T15:25:48.690Z,15.59
2018-04-01T15:28:15.724Z,15.64
2018-04-01T15:30:42.807Z,15.65
2018-04-01T15:33:09.874Z,15.74
2018-04-01T15:35:36.909Z,15.80
2018-04-01T15:38:04.058Z,15.87
2018-04-01T15:40:31.108Z,15.85
2018-04-01T15:42:59.128Z,15.87
2018-04-01T15:45:26.201Z,15.89
2018-04-01T15:47:53.244Z,15.90
2018-04-01T15:50:20.278Z,15.88
2018-04-01T15:52:47.560Z,15.80
2018-04-01T15:55:14.665Z,15.74
2018-04-01T15:57:41.754Z,15.63
2018-04-01T16:00:08.904Z,15.62
2018-04-01T16:02:35.944Z,15.61
2018-04-01T16:05:03.010Z,15.61
2018-04-01T16:07:30.219Z,15.66
2018-04-01T16:09:57.326Z,15.66
2018-04-01T16:12:24.350Z,15.69
2018-04-01T16:14:51.594Z,15.70
2018-04-01T16:17:18.738Z,15.75
2018-04-01T16:19:45.779Z,15.84
2018-04-01T16:22:13.130Z,15.91
2018-04-01T16:24:40.157Z,15.97
2018-04-01T16:27:07.271Z,15.96
2018-04-01T16:29:34.363Z,15.91
2018-04-01T16:32:02.120Z,15.87
2018-04-01T16:34:29.234Z,15.78
2018-04-01T16:36:56.337Z,15.76
2018-04-01T16:39:23.455Z,15.67
2018-04-01T16:41:50.511Z,15.56
2018-04-01T16:44:17.715Z,15.44
2018-04-01T16:46:44.762Z,15.32
2018-04-01T16:49:11.878Z,15.23
2018-04-01T16:51:39.003Z,15.17
2018-04-01T16:54:06.112Z,15.11
2018-04-01T16:56:33.164Z,15.05
2018-04-01T16:59:00.588Z,15.06
2018-04-01T17:01:27.690Z,14.93
2018-04-01T17:03:54.726Z,14.57
2018-04-01T17:06:21.806Z,14.46
2018-04-01T17:08:49.395Z,14.19
2018-04-01T17:11:16.427Z,14.05
2018-04-01T17:13:43.599Z,13.89
2018-04-01T17:16:11.262Z,13.73
2018-04-01T17:18:38.336Z,13.67
2018-04-01T17:21:05.482Z,13.64
2018-04-01T17:23:32.524Z,13.53
2018-04-01T17:25:59.584Z,13.36
2018-04-01T17:28:26.726Z,13.33
2018-04-01T17:30:53.756Z,13.30
2018-04-01T17:33:20.800Z,13.19
2018-04-01T17:35:47.890Z,13.21
2018-04-01T17:38:14.975Z,13.20
2018-04-01T17:40:42.008Z,13.15
2018-04-01T17:43:09.347Z,13.26
2018-04-01T17:45:36.395Z,13.29
2018-04-01T17:48:03.491Z,13.17
2018-04-01T17:50:30.588Z,13.14
2018-04-01T17:52:57.628Z,13.15
2018-04-01T17:55:24.726Z,13.16
2018-04-01T17:57:51.810Z,13.22
2018-04-01T18:00:18.920Z,13.33
2018-04-01T18:02:45.982Z,13.37
2018-04-01T18:05:13.086Z,13.40
2018-04-01T18:07:40.109Z,13.45
2018-04-01T18:10:07.273Z,13.45
2018-04-01T18:12:34.351Z,13.44
2018-04-01T18:15:01.428Z,13.44
2018-04-01T18:17:28.469Z,13.42
2018-04-01T18:19:55.662Z,13.31
2018-04-01T18:22:22.694Z,13.31
2018-04-01T18:24:49.826Z,13.28
2018-04-01T18:27:16.983Z,13.28
2018-04-01T18:29:44.077Z,13.26
2018-04-01T18:32:11.265Z,13.28
2018-04-01T18:34:38.392Z,13.25
2018-04-01T18:37:05.511Z,13.27
2018-04-01T18:39:32.618Z,13.22
2018-04-01T18:41:59.765Z,13.27
2018-04-01T18:44:26.794Z,13.25
2018-04-01T18:46:53.831Z,13.27
2018-04-01T18:49:21.202Z,13.26
2018-04-01T18:51:48.251Z,13.26
2018-04-01T18:54:15.289Z,13.14
2018-04-01T18:56:42.385Z,13.13
2018-04-01T18:59:10.350Z,13.12
2018-04-01T19:01:37.382Z,13.12
2018-04-01T19:04:04.523Z,13.07
2018-04-01T19:06:31.550Z,13.08
2018-04-01T19:08:58.586Z,12.98
2018-04-01T19:11:25.888Z,12.98
2018-04-01T19:13:52.934Z,12.95
2018-04-01T19:16:21.179Z,12.95
2018-04-01T19:18:48.834Z,12.93
2018-04-01T19:21:16.442Z,12.94
2018-04-01T19:23:44.011Z,12.93
2018-04-01T19:26:11.834Z,12.90
2018-04-01T19:28:39.413Z,12.81
2018-04-01T19:31:07.000Z,12.78
2018-04-01T19:33:34.702Z,12.76
2018-04-01T19:36:02.630Z,12.73
2018-04-01T19:38:30.194Z,12.74
2018-04-01T19:40:57.926Z,12.72
2018-04-01T19:43:25.565Z,12.67
2018-04-01T19:45:53.195Z,12.63
2018-04-01T19:48:20.816Z,12.58
2018-04-01T19:50:49.086Z,12.58
2018-04-01T19:53:16.710Z,12.47
2018-04-01T19:55:44.409Z,12.46
2018-04-01T19:58:12.067Z,12.48
2018-04-01T20:00:39.643Z,12.51
2018-04-01T20:03:07.918Z,12.57
2018-04-01T20:05:35.491Z,12.58
2018-04-01T20:08:03.127Z,12.60
2018-04-01T20:10:30.747Z,12.60
2018-04-01T20:12:58.574Z,12.62
2018-04-01T20:15:26.218Z,12.60
2018-04-01T20:17:53.836Z,12.53
2018-04-01T20:20:21.428Z,12.44
2018-04-01T20:22:49.043Z,12.38
2018-04-01T20:25:16.657Z,12.27
2018-04-01T20:27:44.233Z,12.21
2018-04-01T20:30:11.812Z,12.19
2018-04-01T20:32:39.437Z,12.14
2018-04-01T20:35:07.028Z,12.10
2018-04-01T20:37:35.292Z,12.03
2018-04-01T20:40:02.998Z,11.93
2018-04-01T20:42:30.572Z,11.84
2018-04-01T20:44:58.207Z,11.76
2018-04-01T20:47:26.357Z,11.74
2018-04-01T20:49:53.933Z,11.68
2018-04-01T20:52:21.571Z,11.60
2018-04-01T20:54:49.648Z,11.59
2018-04-01T20:57:17.243Z,11.58
2018-04-01T20:59:44.821Z,11.60
2018-04-01T21:02:12.441Z,11.61
2018-04-01T21:04:40.011Z,11.61
2018-04-01T21:07:07.602Z,11.59
2018-04-01T21:09:35.374Z,11.55
2018-04-01T21:12:02.973Z,11.49
2018-04-01T21:14:30.684Z,11.40
2018-04-01T21:16:58.363Z,11.28
2018-04-01T21:19:25.981Z,11.19
2018-04-01T21:21:53.615Z,11.10
2018-04-01T21:24:21.339Z,11.00
2018-04-01T21:26:48.921Z,10.94
2018-04-01T21:29:17.058Z,10.89
2018-04-01T21:31:45.022Z,10.85
2018-04-01T21:34:12.590Z,10.83
2018-04-01T21:36:40.246Z,10.90
2018-04-01T21:39:08.719Z,10.89
2018-04-01T21:41:36.315Z,10.96
2018-04-01T21:44:03.971Z,11.05
2018-04-01T21:46:31.676Z,11.05
2018-04-01T21:48:59.325Z,11.04
2018-04-01T21:51:26.955Z,11.07
2018-04-01T21:53:54.865Z,11.07
2018-04-01T21:56:22.504Z,11.08
2018-04-01T21:58:50.084Z,11.10
2018-04-01T22:01:17.749Z,11.12
2018-04-01T22:03:45.314Z,11.09
2018-04-01T22:06:12.893Z,11.11
2018-04-01T22:08:40.521Z,11.10
2018-04-01T22:11:08.100Z,11.09
2018-04-01T22:13:35.691Z,11.12
2018-04-01T22:16:03.598Z,11.10
2018-04-01T22:18:31.168Z,11.12
2018-04-01T22:20:58.734Z,11.07
2018-04-01T22:23:26.354Z,11.05
2018-04-01T22:25:53.929Z,11.02
2018-04-01T22:28:21.500Z,11.02
2018-04-01T22:30:49.225Z,10.98
2018-04-01T22:33:16.792Z,10.88
2018-04-01T22:35:44.396Z,10.87
2018-04-01T22:38:12.724Z,10.82
2018-04-01T22:40:40.945Z,10.79
2018-04-01T22:43:08.570Z,10.64
2018-04-01T22:45:36.182Z,10.48
2018-04-01T22:48:03.797Z,10.38
2018-04-01T22:50:31.357Z,10.27
2018-04-01T22:52:59.040Z,10.20
2018-04-01T22:55:26.610Z,10.09
2018-04-01T22:57:54.200Z,10.03
2018-04-01T23:00:21.925Z,10.01
2018-04-01T23:02:49.576Z,9.97
2018-04-01T23:05:17.196Z,9.86
2018-04-01T23:07:44.989Z,9.80
2018-04-01T23:10:12.568Z,9.75
2018-04-01T23:12:40.141Z,9.68
2018-04-01T23:15:07.868Z,9.58
2018-04-01T23:17:35.674Z,9.50
2018-04-01T23:20:03.304Z,9.42
2018-04-01T23:22:30.993Z,9.39
2018-04-01T23:24:58.563Z,9.37
2018-04-01T23:27:26.206Z,9.34
2018-04-01T23:29:53.929Z,9.31
2018-04-01T23:32:21.490Z,9.31
2018-04-01T23:34:49.064Z,9.31
2018-04-01T23:37:16.702Z,9.37
2018-04-01T23:39:44.304Z,9.53
2018-04-01T23:42:11.875Z,9.56
2018-04-01T23:44:39.601Z,9.67
2018-04-01T23:47:07.167Z,9.79
2018-04-01T23:49:34.748Z,9.80
2018-04-01T23:52:02.369Z,9.92
2018-04-01T23:54:29.999Z,9.88
2018-04-01T23:56:57.630Z,9.92
2018-04-01T23:59:25.310Z,9.91
